Terminal Aerodrome Forecast
Issued by NWS

Home | Current Version | Previous Version | Text Only | Print | Product List | Glossary On
Versions: 1 2 3 4 5 6 7 8 9 10 11 12 13 14
000
FTAK31 PAJN 291700
TAFAJN
TAF
PAJN 291721Z 2918/3018 VRB03KT P6SM -SHRA BKN010 OVC020
      TEMPO 2918/2921 6SM -SHRA BR OVC015
     FM292100 12008KT P6SM -SHRA SCT010 BKN020 OVC050
     FM300600 10004KT 5SM -SHRA BR SCT010 SCT020 OVC040
     FM301600 13004KT P6SM -SHRA FEW010 SCT025 BKN050=

USA.gov is the U.S. government's official web portal to all federal, state and local government web resources and services.